createdAt,value
2023-02-14T00:04:48.393Z,4.33
2023-02-14T00:09:53.073Z,4.33
2023-02-14T00:15:13.467Z,5.17
2023-02-14T00:20:16.910Z,5.10
2023-02-14T00:25:21.740Z,5.00
2023-02-14T00:30:25.266Z,5.43
2023-02-14T00:35:28.577Z,5.17
2023-02-14T00:40:33.262Z,4.70
2023-02-14T00:45:36.562Z,4.80
2023-02-14T00:50:39.932Z,4.63
2023-02-14T00:55:46.839Z,4.90
2023-02-14T01:00:50.233Z,5.17
2023-02-14T01:05:54.317Z,4.60
2023-02-14T01:10:59.340Z,5.10
2023-02-14T01:16:07.757Z,5.43
2023-02-14T01:21:19.240Z,4.70
2023-02-14T01:26:24.786Z,5.20
2023-02-14T01:31:29.985Z,4.70
2023-02-14T01:36:36.402Z,4.90
2023-02-14T01:41:42.811Z,4.70
2023-02-14T01:46:47.265Z,4.70
2023-02-14T01:51:54.089Z,4.73
2023-02-14T01:57:01.813Z,4.60
2023-02-14T02:02:06.006Z,5.03
2023-02-14T02:07:12.940Z,4.50
2023-02-14T02:12:17.827Z,4.40
2023-02-14T02:17:29.238Z,4.73
2023-02-14T02:23:06.263Z,4.10
2023-02-14T02:28:33.544Z,4.40
2023-02-14T02:34:28.007Z,4.50
2023-02-14T02:39:54.310Z,4.27
2023-02-14T02:45:05.258Z,3.87
2023-02-14T02:50:38.581Z,4.10
2023-02-14T02:56:03.745Z,4.37
2023-02-14T03:01:12.723Z,4.20
2023-02-14T03:06:15.972Z,3.90
2023-02-14T03:11:20.704Z,4.03
2023-02-14T03:16:31.600Z,3.40
2023-02-14T03:21:43.430Z,3.87
2023-02-14T03:26:51.281Z,3.80
2023-02-14T03:32:02.172Z,3.37
2023-02-14T03:37:12.611Z,3.33
2023-02-14T03:42:21.419Z,3.27
2023-02-14T03:47:27.559Z,2.87
2023-02-14T03:52:32.613Z,3.63
2023-02-14T03:57:45.012Z,3.50
2023-02-14T04:02:51.927Z,3.90
2023-02-14T04:07:57.165Z,3.47
2023-02-14T04:13:01.861Z,3.87
2023-02-14T04:18:22.636Z,3.40
2023-02-14T04:23:25.979Z,3.57
2023-02-14T04:28:30.692Z,3.73
2023-02-14T04:33:34.955Z,4.00
2023-02-14T04:38:38.409Z,3.67
2023-02-14T04:43:43.154Z,3.33
2023-02-14T04:48:46.515Z,3.43
2023-02-14T04:53:49.750Z,3.30
2023-02-14T04:58:54.440Z,3.87
2023-02-14T05:03:58.072Z,3.53
2023-02-14T05:09:01.386Z,3.57
2023-02-14T05:14:06.077Z,3.60
2023-02-14T05:19:09.957Z,3.50
2023-02-14T05:24:13.305Z,3.30
2023-02-14T05:29:18.090Z,4.37
2023-02-14T05:34:21.879Z,3.50
2023-02-14T05:39:25.225Z,3.33
2023-02-14T05:44:29.916Z,3.70
2023-02-14T05:49:33.224Z,3.33
2023-02-14T05:54:36.876Z,5.60
2023-02-14T05:59:41.629Z,4.70
2023-02-14T06:04:44.981Z,3.70
2023-02-14T06:09:48.302Z,3.40
2023-02-14T06:14:52.979Z,3.60
2023-02-14T06:19:56.286Z,3.70
2023-02-14T06:24:59.589Z,3.67
2023-02-14T06:30:04.512Z,3.40
2023-02-14T06:35:08.480Z,3.97
2023-02-14T06:40:12.780Z,3.87
2023-02-14T06:45:17.573Z,3.57
2023-02-14T06:50:21.077Z,4.13
2023-02-14T06:55:24.385Z,4.30
2023-02-14T07:00:29.275Z,3.97
2023-02-14T07:05:33.006Z,4.40
2023-02-14T07:10:36.509Z,3.77
2023-02-14T07:15:41.361Z,3.77
2023-02-14T07:20:45.727Z,4.50
2023-02-14T07:25:49.043Z,3.87
2023-02-14T07:30:54.074Z,4.43
2023-02-14T07:35:58.391Z,4.27
2023-02-14T07:41:02.101Z,3.70
2023-02-14T07:46:07.214Z,3.83
2023-02-14T07:51:11.338Z,3.60
2023-02-14T07:56:14.621Z,3.10
2023-02-14T08:01:19.658Z,3.50
2023-02-14T08:06:23.062Z,3.97
2023-02-14T08:11:43.717Z,4.40
2023-02-14T08:16:48.450Z,5.40
2023-02-14T08:21:51.727Z,5.33
2023-02-14T08:26:55.072Z,4.90
2023-02-14T08:32:01.258Z,4.50
2023-02-14T08:37:04.662Z,3.97
2023-02-14T08:42:08.116Z,3.30
2023-02-14T08:47:12.857Z,3.30
2023-02-14T08:52:16.144Z,2.97
2023-02-14T08:57:19.496Z,3.57
2023-02-14T09:02:24.278Z,2.90
2023-02-14T09:07:27.582Z,2.77
2023-02-14T09:12:31.002Z,2.00
2023-02-14T09:17:35.703Z,2.20
2023-02-14T09:22:39.251Z,2.17
2023-02-14T09:27:42.551Z,2.20
2023-02-14T09:32:47.300Z,2.10
2023-02-14T09:37:50.637Z,2.00
2023-02-14T09:43:02.316Z,1.80
2023-02-14T09:48:11.272Z,2.10
2023-02-14T09:53:27.938Z,1.80
2023-02-14T09:58:35.578Z,1.43
2023-02-14T10:04:06.710Z,1.33
2023-02-14T10:09:20.739Z,1.40
2023-02-14T10:14:28.057Z,1.87
2023-02-14T10:19:39.496Z,1.80
2023-02-14T10:24:48.277Z,1.30
2023-02-14T10:29:51.933Z,1.33
2023-02-14T10:35:01.692Z,1.77
2023-02-14T10:40:27.627Z,1.20
2023-02-14T10:45:37.923Z,0.80
2023-02-14T10:50:50.746Z,0.90
2023-02-14T10:56:02.698Z,1.03
2023-02-14T11:01:09.373Z,1.00
2023-02-14T11:06:14.138Z,0.90
2023-02-14T11:11:22.514Z,0.67
2023-02-14T11:16:32.002Z,0.97
2023-02-14T11:21:41.062Z,0.70
2023-02-14T11:26:47.865Z,0.60
2023-02-14T11:31:51.949Z,0.50
2023-02-14T11:36:56.792Z,0.70
2023-02-14T11:42:04.216Z,0.70
2023-02-14T11:47:29.390Z,0.70
2023-02-14T11:52:40.503Z,0.60
2023-02-14T11:57:43.935Z,0.60
2023-02-14T12:02:50.305Z,0.73
2023-02-14T12:07:57.226Z,0.90
2023-02-14T12:13:02.490Z,0.80
2023-02-14T12:18:34.894Z,0.80
2023-02-14T12:23:45.032Z,0.43
2023-02-14T12:28:52.407Z,0.60
2023-02-14T12:33:55.898Z,0.63
2023-02-14T12:39:10.565Z,0.80
2023-02-14T12:44:22.681Z,0.50
2023-02-14T12:49:55.711Z,0.80
2023-02-14T12:55:14.165Z,0.50
2023-02-14T13:00:36.806Z,0.60
2023-02-14T13:05:51.208Z,0.50
2023-02-14T13:11:06.630Z,0.50
2023-02-14T13:16:17.986Z,0.53
2023-02-14T13:21:25.976Z,0.73
2023-02-14T13:26:33.633Z,0.50
2023-02-14T13:31:37.780Z,0.50
2023-02-14T13:36:41.960Z,0.70
2023-02-14T13:41:46.760Z,0.73
2023-02-14T13:46:53.158Z,0.97
2023-02-14T13:51:58.837Z,0.60
2023-02-14T13:57:07.026Z,0.70
2023-02-14T14:02:34.004Z,1.10
2023-02-14T14:07:37.402Z,0.87
2023-02-14T14:12:44.297Z,0.70
2023-02-14T14:17:51.830Z,1.00
2023-02-14T14:22:57.722Z,1.10
2023-02-14T14:28:03.214Z,1.00
2023-02-14T14:33:17.278Z,0.80
2023-02-14T14:38:21.072Z,0.90
2023-02-14T14:43:30.842Z,0.93
2023-02-14T14:48:38.942Z,0.63
2023-02-14T14:53:47.371Z,0.77
2023-02-14T14:58:54.068Z,0.70
2023-02-14T15:04:11.980Z,0.80
2023-02-14T15:09:23.109Z,0.70
2023-02-14T15:14:30.941Z,0.70
2023-02-14T15:19:39.875Z,0.77
2023-02-14T15:24:44.800Z,0.80
2023-02-14T15:29:59.323Z,0.63
2023-02-14T15:35:05.041Z,0.90
2023-02-14T15:40:10.711Z,0.73
2023-02-14T15:45:31.262Z,0.80
2023-02-14T15:50:37.553Z,1.20
2023-02-14T15:55:44.258Z,0.97
2023-02-14T16:00:52.190Z,1.37
2023-02-14T16:05:56.368Z,0.80
2023-02-14T16:11:02.390Z,1.10
2023-02-14T16:16:09.731Z,1.23
2023-02-14T16:21:19.523Z,1.40
2023-02-14T16:26:25.634Z,1.33
2023-02-14T16:31:34.116Z,1.30
2023-02-14T16:36:38.154Z,1.30
2023-02-14T16:41:46.056Z,1.67
2023-02-14T16:46:51.619Z,1.67
2023-02-14T16:51:56.296Z,2.03
2023-02-14T16:57:03.581Z,2.40
2023-02-14T17:02:11.462Z,2.10
2023-02-14T17:07:16.989Z,2.07
2023-02-14T17:12:27.017Z,2.33
2023-02-14T17:17:33.009Z,2.00
2023-02-14T17:22:37.898Z,1.30
2023-02-14T17:27:44.971Z,1.40
2023-02-14T17:32:51.679Z,1.33
2023-02-14T17:37:55.713Z,1.10
2023-02-14T17:43:00.886Z,1.30
2023-02-14T17:48:07.135Z,1.00
2023-02-14T17:53:12.621Z,1.00
2023-02-14T17:58:17.144Z,1.60
2023-02-14T18:03:24.081Z,2.97
2023-02-14T18:08:30.302Z,2.00
2023-02-14T18:13:35.352Z,2.07
2023-02-14T18:18:41.157Z,1.70
2023-02-14T18:23:45.469Z,1.10
2023-02-14T18:28:52.598Z,1.30
2023-02-14T18:34:01.184Z,1.07
2023-02-14T18:39:08.709Z,1.27
2023-02-14T18:44:15.398Z,1.30
2023-02-14T18:49:21.442Z,1.30
2023-02-14T18:54:26.557Z,1.40
2023-02-14T18:59:32.848Z,1.30
2023-02-14T19:04:39.314Z,1.50
2023-02-14T19:09:45.125Z,1.87
2023-02-14T19:14:49.927Z,2.03
2023-02-14T19:19:58.885Z,1.43
2023-02-14T19:25:03.853Z,1.60
2023-02-14T19:30:11.287Z,2.53
2023-02-14T19:35:17.683Z,2.03
2023-02-14T19:40:24.191Z,1.30
2023-02-14T19:45:33.742Z,1.20
2023-02-14T19:50:40.936Z,2.63
2023-02-14T19:55:47.175Z,3.70
2023-02-14T20:00:59.141Z,2.33
2023-02-14T20:06:08.100Z,1.90
2023-02-14T20:11:25.101Z,2.57
2023-02-14T20:16:32.556Z,3.73
2023-02-14T20:21:40.321Z,2.83
2023-02-14T20:26:46.407Z,2.30
2023-02-14T20:31:56.160Z,2.10
2023-02-14T20:37:03.398Z,2.23
2023-02-14T20:42:09.291Z,2.97
2023-02-14T20:47:15.093Z,2.57
2023-02-14T20:52:23.444Z,2.57
2023-02-14T20:57:33.202Z,4.70
2023-02-14T21:02:39.260Z,5.40
2023-02-14T21:07:45.935Z,5.53
2023-02-14T21:12:55.674Z,4.00
2023-02-14T21:18:00.718Z,4.10
2023-02-14T21:23:10.090Z,2.20
2023-02-14T21:28:18.293Z,2.60
2023-02-14T21:33:25.966Z,4.17
2023-02-14T21:38:33.099Z,4.37
2023-02-14T21:43:39.727Z,4.20
2023-02-14T21:49:16.652Z,4.17
2023-02-14T21:54:23.238Z,3.53
2023-02-14T21:59:27.900Z,3.90
2023-02-14T22:04:32.200Z,3.53
2023-02-14T22:09:37.944Z,2.90
2023-02-14T22:14:41.357Z,2.93
2023-02-14T22:19:44.883Z,3.20
2023-02-14T22:24:50.058Z,3.70
2023-02-14T22:29:53.412Z,3.27
2023-02-14T22:34:56.751Z,3.73
2023-02-14T22:40:01.465Z,3.10
2023-02-14T22:45:05.607Z,2.83
2023-02-14T22:50:09.791Z,3.30
2023-02-14T22:55:14.725Z,4.40
2023-02-14T23:00:18.267Z,4.13
2023-02-14T23:05:21.671Z,4.50
2023-02-14T23:10:26.350Z,4.80
2023-02-14T23:16:01.980Z,4.20
2023-02-14T23:21:27.230Z,4.23
2023-02-14T23:26:31.931Z,3.83
2023-02-14T23:37:13.848Z,4.20
2023-02-14T23:42:19.046Z,3.80
2023-02-14T23:47:22.378Z,3.87
2023-02-14T23:52:25.664Z,3.70
2023-02-14T23:57:30.338Z,3.33
